Strona główna
METAR-TAF:

METAR-TAF

Lotnisko :

Ilhéus, Bahia, Brazylia

Szerokość geograficzna: 14-49S, Długość geograficzna: 039-02W, wysokość: 4 m

Aktualna obserwacja pogody

Raport powstał 2 godziny i 6 minut temu, godzina 10:00 UTC
Wiatr 4 kt od zachodnio-północny zachód
Temperatura 25°C
Wilgotność 94%
Ciśnienie 1012 hPa
Widzialność 10 km lub więcej
Mało chmury na wysokości 1800 ft
Rozproszone chmury na wysokości 3000 ft

METAR: SBIL 031000Z 29004KT 9999 FEW018 SCT030 25/24 Q1012

czas: 09:06 (12:06 UTC)

Prognoza

Raport powstał 8 godziny i 6 minut temu, godzina 04:00 UTC
Prognoza ważna od 03 godzina 06 UTC do 03 godzina 18 UTC
Wiatr 3 kt od zachód
Widzialność 10 km lub więcej
Rozproszone chmury na wysokości 2500 ft
Stopniowe zmiany
od 03 godzina 12 UTC do 03 godzina 14 UTC
Wiatr 6 kt od wschód

TAF: SBIL 030400Z 0306/0318 26003KT 9999 SCT025 TN25/0306Z TX31/0316Z BECMG 0312/0314 09006KT RMK PDU

Obserwacja i prognoza pogody dla ponad 4000 lotnisk (raport METAR i TAF).

Dostępne stacje oznaczono żółtymi i czerwonymi punktami na mapie.

Najedź kursorem aby zobaczyć nazwę stacji.

Kliknij aby zobaczyć obserwacje i prognozy pogody.

Aby zmienić mapę: kliknij na zielony przycisk z czarnym krzyżykiem, aby powiększyć; na zielony przycisk z myślnikiem, aby pomniejszyć; na zielone strzałki, aby przejść do map sąsiednich.


METAR-TAF: